This is the latest recevied weather packets stored in our database for station/object WB9TLH-11. If no packets are shown the sender has not sent any weather packets the latest 1 day(s).
| Time | Temp. | Humidity | Pressure | Rain* | Wind** | Luminosity | Snow |
|---|---|---|---|---|---|---|---|
| 1778084149 | 12.22° C | 72% | 1015 hPa | 0 mm | - | - | - |
| 1778083849 | 12.22° C | 70% | 1015 hPa | 0 mm | - | - | - |
| 1778083549 | 12.22° C | 73% | 1014.9 hPa | 0 mm | - | - | - |
| 1778083249 | 12.22° C | 73% | 1015 hPa | 0 mm | - | - | - |
| 1778082949 | 11.67° C | 75% | 1014.7 hPa | 0 mm | - | - | - |
| 1778082649 | 11.67° C | 76% | 1014.8 hPa | 0 mm | - | - | - |
| 1778082049 | 11.11° C | 78% | 1014.6 hPa | 0 mm | - | - | - |
| 1778081449 | 11.11° C | 78% | 1014.9 hPa | 0 mm | - | - | - |
| 1778081149 | 11.11° C | 78% | 1014.7 hPa | 0 mm | - | - | - |
| 1778080549 | 10.56° C | 82% | 1014.9 hPa | 0 mm | - | - | - |
| 1778080249 | 10.56° C | 84% | 1014.7 hPa | 0 mm | - | - | - |
| 1778078150 | 9.44° C | 89% | 1014.8 hPa | 0 mm | - | - | - |
| 1778077549 | 8.89° C | 90% | 1014.7 hPa | 0 mm | - | - | - |
| 1778074249 | 8.33° C | 91% | 1013.7 hPa | 0 mm | - | - | - |
| 1778070650 | 7.78° C | 91% | 1013.4 hPa | 0 mm | - | - | - |
| 1778061350 | 7.78° C | 91% | 1010.9 hPa | 0 mm | - | - | - |
| 1778061050 | 7.78° C | 91% | 1011.1 hPa | 0 mm | - | - | - |
| 1778060750 | 7.78° C | 91% | 1011.1 hPa | 0 mm | - | - | - |
| 1778060450 | 7.78° C | 91% | 1011.2 hPa | 0 mm | - | - | - |
| 1778060150 | 7.78° C | 91% | 1011.2 hPa | 0 mm | - | - | - |
| 1778059850 | 7.78° C | 91% | 1011.2 hPa | 0 mm | - | - | - |
| 1778059550 | 7.78° C | 91% | 1011.1 hPa | 0 mm | - | - | - |
| 1778059250 | 7.78° C | 91% | 1011.1 hPa | 0 mm | - | - | - |
| 1778058950 | 7.78° C | 91% | 1011 hPa | 0 mm | - | - | - |
| 1778058650 | 7.22° C | 91% | 1011 hPa | 0 mm | - | - | - |
* Rain latest hour (hover to see other rain measurements)
** Current wind speed in m/s (hover to see current wind gust speed)